createdAt,value
2019-01-30T00:00:21.545Z,-1.95
2019-01-30T00:01:18.608Z,-1.94
2019-01-30T00:02:16.542Z,-1.94
2019-01-30T00:03:13.083Z,-1.94
2019-01-30T00:04:09.660Z,-1.96
2019-01-30T00:05:06.678Z,-1.94
2019-01-30T00:06:03.721Z,-1.96
2019-01-30T00:07:00.771Z,-1.96
2019-01-30T00:07:57.769Z,-1.97
2019-01-30T00:08:55.791Z,-1.97
2019-01-30T00:09:51.818Z,-1.98
2019-01-30T00:10:48.857Z,-1.98
2019-01-30T00:11:45.888Z,-1.97
2019-01-30T00:12:42.900Z,-1.99
2019-01-30T00:13:39.924Z,-1.99
2019-01-30T00:14:36.952Z,-1.99
2019-01-30T00:15:34.034Z,-2.00
2019-01-30T00:16:30.523Z,-2.00
2019-01-30T00:17:28.045Z,-2.00
2019-01-30T00:18:25.059Z,-1.99
2019-01-30T00:19:22.098Z,-2.00
2019-01-30T00:20:19.132Z,-2.00
2019-01-30T00:21:16.171Z,-2.00
2019-01-30T00:22:13.191Z,-2.00
2019-01-30T00:23:10.209Z,-2.00
2019-01-30T00:24:07.239Z,-2.01
2019-01-30T00:25:04.270Z,-2.00
2019-01-30T00:26:01.289Z,-2.00
2019-01-30T00:26:58.319Z,-2.01
2019-01-30T00:27:55.360Z,-2.01
2019-01-30T00:28:52.383Z,-2.00
2019-01-30T00:29:49.407Z,-2.00
2019-01-30T00:30:46.437Z,-2.00
2019-01-30T00:31:43.462Z,-2.00
2019-01-30T00:32:40.612Z,-2.00
2019-01-30T00:33:37.519Z,-2.00
2019-01-30T00:34:34.602Z,-1.99
2019-01-30T00:35:31.580Z,-1.99
2019-01-30T00:36:28.645Z,-2.00
2019-01-30T00:37:25.654Z,-1.99
2019-01-30T00:38:22.672Z,-1.99
2019-01-30T00:39:19.688Z,-2.00
2019-01-30T00:40:16.714Z,-1.98
2019-01-30T00:41:13.743Z,-1.98
2019-01-30T00:42:10.781Z,-1.98
2019-01-30T00:43:07.803Z,-1.98
2019-01-30T00:44:04.827Z,-1.98
2019-01-30T00:45:01.853Z,-1.98
2019-01-30T00:45:58.875Z,-1.98
2019-01-30T00:46:55.928Z,-2.00
2019-01-30T00:47:52.969Z,-1.98
2019-01-30T00:48:49.974Z,-1.98
2019-01-30T00:49:47.987Z,-1.98
2019-01-30T00:50:44.017Z,-1.99
2019-01-30T00:51:41.055Z,-1.99
2019-01-30T00:52:38.091Z,-1.99
2019-01-30T00:53:35.114Z,-1.98
2019-01-30T00:54:32.489Z,-1.98
2019-01-30T00:55:29.164Z,-1.99
2019-01-30T00:56:26.188Z,-1.99
2019-01-30T00:57:25.747Z,-2.00
2019-01-30T00:58:20.256Z,-2.00
2019-01-30T00:59:17.268Z,-1.99
2019-01-30T01:00:14.861Z,-1.98
2019-01-30T01:01:11.416Z,-1.98
2019-01-30T01:02:08.361Z,-2.00
2019-01-30T01:03:05.393Z,-2.00
2019-01-30T01:04:02.417Z,-2.00
2019-01-30T01:04:59.438Z,-2.00
2019-01-30T01:05:56.637Z,-2.00
2019-01-30T01:06:53.494Z,-2.00
2019-01-30T01:07:50.618Z,-2.00
2019-01-30T01:08:47.561Z,-2.00
2019-01-30T01:09:45.576Z,-2.01
2019-01-30T01:10:41.606Z,-2.01
2019-01-30T01:11:38.640Z,-2.01
2019-01-30T01:12:35.667Z,-2.00
2019-01-30T01:13:32.692Z,-2.00
2019-01-30T01:14:29.721Z,-2.01
2019-01-30T01:15:26.745Z,-2.02
2019-01-30T01:16:23.773Z,-2.02
2019-01-30T01:17:20.799Z,-2.03
2019-01-30T01:18:17.835Z,-2.03
2019-01-30T01:19:14.866Z,-2.04
2019-01-30T01:20:12.879Z,-2.03
2019-01-30T01:21:08.914Z,-2.04
2019-01-30T01:22:05.950Z,-2.05
2019-01-30T01:23:02.971Z,-2.06
2019-01-30T01:23:59.987Z,-2.05
2019-01-30T01:24:57.026Z,-2.05
2019-01-30T01:25:54.042Z,-2.07
2019-01-30T01:26:51.081Z,-2.08
2019-01-30T01:27:48.099Z,-2.07
2019-01-30T01:28:45.142Z,-2.08
2019-01-30T01:29:42.167Z,-2.09
2019-01-30T01:30:39.192Z,-2.09
2019-01-30T01:31:36.226Z,-2.09
2019-01-30T01:32:33.239Z,-2.13
2019-01-30T01:33:30.280Z,-2.10
2019-01-30T01:34:27.295Z,-2.10
2019-01-30T01:35:24.329Z,-2.11
2019-01-30T01:36:21.364Z,-2.11
2019-01-30T01:37:18.389Z,-2.13
2019-01-30T01:38:15.419Z,-2.15
2019-01-30T01:39:12.612Z,-2.14
2019-01-30T01:40:10.616Z,-2.14
2019-01-30T01:41:06.612Z,-2.14
2019-01-30T01:42:03.539Z,-2.15
2019-01-30T01:43:00.608Z,-2.14
2019-01-30T01:43:57.590Z,-2.15
2019-01-30T01:44:54.603Z,-2.15
2019-01-30T01:45:51.630Z,-2.16
2019-01-30T01:46:48.678Z,-2.16
2019-01-30T01:47:45.692Z,-2.15
2019-01-30T01:48:42.732Z,-2.16
2019-01-30T01:49:39.750Z,-2.15
2019-01-30T01:50:37.767Z,-2.15
2019-01-30T01:51:33.816Z,-2.14
2019-01-30T01:52:30.842Z,-2.15
2019-01-30T01:53:27.861Z,-2.15
2019-01-30T01:54:24.891Z,-2.15
2019-01-30T01:55:21.914Z,-2.13
2019-01-30T01:56:18.949Z,-2.14
2019-01-30T01:57:15.969Z,-2.14
2019-01-30T01:58:13.012Z,-2.15
2019-01-30T01:59:10.032Z,-2.14
2019-01-30T02:00:07.053Z,-2.15
2019-01-30T02:01:04.083Z,-2.14
2019-01-30T02:02:01.118Z,-2.15
2019-01-30T02:02:58.158Z,-2.15
2019-01-30T02:03:55.173Z,-2.15
2019-01-30T02:04:52.186Z,-2.15
2019-01-30T02:05:49.228Z,-2.15
2019-01-30T02:06:46.247Z,-2.16
2019-01-30T02:07:43.284Z,-2.15
2019-01-30T02:08:40.308Z,-2.15
2019-01-30T02:09:37.344Z,-2.16
2019-01-30T02:10:35.720Z,-2.15
2019-01-30T02:11:31.392Z,-2.16
2019-01-30T02:12:28.428Z,-2.16
2019-01-30T02:13:25.450Z,-2.16
2019-01-30T02:14:22.611Z,-2.16
2019-01-30T02:15:19.493Z,-2.17
2019-01-30T02:16:23.478Z,-2.18
2019-01-30T02:17:13.556Z,-2.17
2019-01-30T02:18:10.601Z,-2.18
2019-01-30T02:19:07.611Z,-2.16
2019-01-30T02:20:04.672Z,-2.16
2019-01-30T02:21:01.666Z,-2.16
2019-01-30T02:21:58.703Z,-2.16
2019-01-30T02:22:55.732Z,-2.16
2019-01-30T02:23:52.739Z,-2.17
2019-01-30T02:24:49.791Z,-2.16
2019-01-30T02:25:46.807Z,-2.14
2019-01-30T02:26:43.828Z,-2.16
2019-01-30T02:27:40.865Z,-2.16
2019-01-30T02:28:37.896Z,-2.16
2019-01-30T02:29:34.944Z,-2.16
2019-01-30T02:30:31.957Z,-2.16
2019-01-30T02:31:28.981Z,-2.15
2019-01-30T02:32:26.010Z,-2.15
2019-01-30T02:33:23.025Z,-2.14
2019-01-30T02:34:20.047Z,-2.13
2019-01-30T02:35:17.088Z,-2.14
2019-01-30T02:36:14.115Z,-2.13
2019-01-30T02:37:11.142Z,-2.13
2019-01-30T02:38:08.178Z,-2.13
2019-01-30T02:39:05.209Z,-2.10
2019-01-30T02:40:02.230Z,-2.09
2019-01-30T02:40:59.264Z,-2.09
2019-01-30T02:41:56.287Z,-2.09
2019-01-30T02:42:53.322Z,-2.10
2019-01-30T02:43:50.342Z,-2.09
2019-01-30T02:44:47.370Z,-2.09
2019-01-30T02:45:44.391Z,-2.09
2019-01-30T02:46:41.426Z,-2.10
2019-01-30T02:47:38.610Z,-2.11
2019-01-30T02:48:35.470Z,-2.09
2019-01-30T02:49:32.608Z,-2.10
2019-01-30T02:50:29.556Z,-2.10
2019-01-30T02:51:26.594Z,-2.11
2019-01-30T02:52:23.598Z,-2.11
2019-01-30T02:53:20.630Z,-2.13
2019-01-30T02:54:17.648Z,-2.11
2019-01-30T02:55:14.664Z,-2.11
2019-01-30T02:56:11.713Z,-2.13
2019-01-30T02:57:08.735Z,-2.14
2019-01-30T02:58:05.751Z,-2.15
2019-01-30T02:59:02.783Z,-2.14
2019-01-30T02:59:59.822Z,-2.15
2019-01-30T03:00:59.326Z,-2.16
2019-01-30T03:01:53.870Z,-2.16
2019-01-30T03:02:50.904Z,-2.17
2019-01-30T03:03:47.941Z,-2.18
2019-01-30T03:04:44.955Z,-2.18
2019-01-30T03:05:41.992Z,-2.21
2019-01-30T03:06:39.005Z,-2.20
2019-01-30T03:07:36.044Z,-2.20
2019-01-30T03:08:33.066Z,-2.21
2019-01-30T03:09:30.104Z,-2.22
2019-01-30T03:10:27.124Z,-2.21
2019-01-30T03:11:24.145Z,-2.22
2019-01-30T03:12:21.178Z,-2.22
2019-01-30T03:13:18.213Z,-2.24
2019-01-30T03:14:15.249Z,-2.24
2019-01-30T03:15:12.270Z,-2.23
2019-01-30T03:16:09.288Z,-2.24
2019-01-30T03:17:06.322Z,-2.25
2019-01-30T03:18:03.336Z,-2.25
2019-01-30T03:19:00.373Z,-2.26
2019-01-30T03:19:57.399Z,-2.25
2019-01-30T03:20:54.499Z,-2.24
2019-01-30T03:21:51.456Z,-2.25
2019-01-30T03:22:48.609Z,-2.25
2019-01-30T03:23:45.553Z,-2.26
2019-01-30T03:24:42.596Z,-2.26
2019-01-30T03:25:40.605Z,-2.25
2019-01-30T03:26:36.589Z,-2.25
2019-01-30T03:27:33.627Z,-2.25
2019-01-30T03:28:30.664Z,-2.25
2019-01-30T03:29:27.679Z,-2.25
2019-01-30T03:30:24.739Z,-2.23
2019-01-30T03:31:21.751Z,-2.23
2019-01-30T03:32:18.774Z,-2.22
2019-01-30T03:33:15.796Z,-2.22
2019-01-30T03:34:12.831Z,-2.20
2019-01-30T03:35:09.857Z,-2.21
2019-01-30T03:36:06.882Z,-2.20
2019-01-30T03:37:03.903Z,-2.20
2019-01-30T03:38:00.935Z,-2.19
2019-01-30T03:38:57.954Z,-2.18
2019-01-30T03:39:55.987Z,-2.18
2019-01-30T03:40:52.015Z,-2.18
2019-01-30T03:41:49.054Z,-2.17
2019-01-30T03:42:46.075Z,-2.17
2019-01-30T03:43:43.103Z,-2.15
2019-01-30T03:44:40.142Z,-2.14
2019-01-30T03:45:37.174Z,-2.14
2019-01-30T03:46:34.188Z,-2.13
2019-01-30T03:47:31.214Z,-2.10
2019-01-30T03:48:28.235Z,-2.10
2019-01-30T03:49:25.290Z,-2.09
2019-01-30T03:50:22.296Z,-2.09
2019-01-30T03:51:19.327Z,-2.06
2019-01-30T03:52:16.362Z,-2.07
2019-01-30T03:53:13.383Z,-2.07
2019-01-30T03:54:10.413Z,-2.04
2019-01-30T03:55:07.433Z,-2.03
2019-01-30T03:56:04.598Z,-2.02
2019-01-30T03:57:01.489Z,-2.00
2019-01-30T03:57:58.595Z,-2.01
2019-01-30T03:58:55.558Z,-1.99
2019-01-30T03:59:52.611Z,-1.99
2019-01-30T04:00:49.619Z,-1.97
2019-01-30T04:01:46.633Z,-1.98
2019-01-30T04:02:43.676Z,-1.95
2019-01-30T04:03:41.156Z,-1.95
2019-01-30T04:04:37.724Z,-1.92
2019-01-30T04:05:34.763Z,-1.91
2019-01-30T04:06:31.778Z,-1.91
2019-01-30T04:07:28.810Z,-1.91
2019-01-30T04:08:25.818Z,-1.87
2019-01-30T04:09:22.850Z,-1.88
2019-01-30T04:10:19.877Z,-1.85
2019-01-30T04:11:16.933Z,-1.85
2019-01-30T04:12:13.953Z,-1.85
2019-01-30T04:13:10.965Z,-1.82
2019-01-30T04:14:08.001Z,-1.80
2019-01-30T04:15:05.031Z,-1.80
2019-01-30T04:16:02.050Z,-1.80
2019-01-30T04:16:59.089Z,-1.79
2019-01-30T04:17:56.113Z,-1.79
2019-01-30T04:18:53.126Z,-1.78
2019-01-30T04:19:50.163Z,-1.77
2019-01-30T04:20:47.184Z,-1.77
2019-01-30T04:21:44.222Z,-1.74
2019-01-30T04:22:41.254Z,-1.75
2019-01-30T04:23:38.273Z,-1.74
2019-01-30T04:24:35.303Z,-1.72
2019-01-30T04:25:32.324Z,-1.73
2019-01-30T04:26:29.375Z,-1.72
2019-01-30T04:27:26.397Z,-1.69
2019-01-30T04:28:23.404Z,-1.69
2019-01-30T04:29:20.433Z,-1.66
2019-01-30T04:30:17.476Z,-1.66
2019-01-30T04:31:14.601Z,-1.66
2019-01-30T04:32:11.540Z,-1.65
2019-01-30T04:33:08.605Z,-1.65
2019-01-30T04:34:05.582Z,-1.63
2019-01-30T04:35:02.617Z,-1.62
2019-01-30T04:35:59.633Z,-1.62
2019-01-30T04:36:56.664Z,-1.61
2019-01-30T04:37:53.754Z,-1.61
2019-01-30T04:38:51.727Z,-1.61
2019-01-30T04:39:47.739Z,-1.60
2019-01-30T04:40:44.780Z,-1.58
2019-01-30T04:41:41.834Z,-1.59
2019-01-30T04:42:38.845Z,-1.57
2019-01-30T04:43:35.853Z,-1.55
2019-01-30T04:44:32.896Z,-1.55
2019-01-30T04:45:29.926Z,-1.55
2019-01-30T04:46:26.963Z,-1.52
2019-01-30T04:47:23.981Z,-1.52
2019-01-30T04:48:21.010Z,-1.53
2019-01-30T04:49:18.022Z,-1.52
2019-01-30T04:50:15.103Z,-1.52
2019-01-30T04:51:12.079Z,-1.52
2019-01-30T04:52:09.116Z,-1.51
2019-01-30T04:53:06.159Z,-1.51
2019-01-30T04:54:03.173Z,-1.50
2019-01-30T04:55:00.447Z,-1.50
2019-01-30T04:55:57.236Z,-1.48
2019-01-30T04:56:54.248Z,-1.48
2019-01-30T04:57:51.292Z,-1.47
2019-01-30T04:58:48.349Z,-1.47
2019-01-30T04:59:45.334Z,-1.46
2019-01-30T05:00:42.372Z,-1.46
2019-01-30T05:01:49.505Z,-1.46
2019-01-30T05:02:36.424Z,-1.45
2019-01-30T05:03:33.462Z,-1.44
2019-01-30T05:04:31.505Z,-1.44
2019-01-30T05:05:27.507Z,-1.44
2019-01-30T05:06:24.602Z,-1.42
2019-01-30T05:07:21.562Z,-1.41
2019-01-30T05:08:18.624Z,-1.41
2019-01-30T05:09:15.613Z,-1.39
2019-01-30T05:10:12.666Z,-1.40
2019-01-30T05:11:09.681Z,-1.39
2019-01-30T05:12:06.701Z,-1.39
2019-01-30T05:13:03.738Z,-1.39
2019-01-30T05:14:01.532Z,-1.38
2019-01-30T05:14:57.792Z,-1.37
2019-01-30T05:15:54.837Z,-1.38
2019-01-30T05:16:51.854Z,-1.36
2019-01-30T05:17:48.887Z,-1.37
2019-01-30T05:18:45.901Z,-1.34
2019-01-30T05:19:42.925Z,-1.35
2019-01-30T05:20:39.961Z,-1.33
2019-01-30T05:21:36.971Z,-1.33
2019-01-30T05:22:34.036Z,-1.32
2019-01-30T05:23:31.045Z,-1.32
2019-01-30T05:24:28.087Z,-1.32
2019-01-30T05:25:25.101Z,-1.30
2019-01-30T05:26:22.128Z,-1.30
2019-01-30T05:27:19.157Z,-1.29
2019-01-30T05:28:16.185Z,-1.29
2019-01-30T05:29:13.211Z,-1.30
2019-01-30T05:30:10.238Z,-1.27
2019-01-30T05:31:07.258Z,-1.27
2019-01-30T05:32:04.282Z,-1.26
2019-01-30T05:33:01.325Z,-1.26
2019-01-30T05:33:58.357Z,-1.25
2019-01-30T05:34:56.372Z,-1.25
2019-01-30T05:35:52.417Z,-1.25
2019-01-30T05:36:49.442Z,-1.25
2019-01-30T05:37:46.621Z,-1.26
2019-01-30T05:38:43.503Z,-1.24
2019-01-30T05:39:40.611Z,-1.22
2019-01-30T05:40:37.554Z,-1.22
2019-01-30T05:41:34.568Z,-1.22
2019-01-30T05:42:31.598Z,-1.21
2019-01-30T05:43:28.635Z,-1.21
2019-01-30T05:44:25.662Z,-1.19
2019-01-30T05:45:22.684Z,-1.17
2019-01-30T05:46:19.710Z,-1.17
2019-01-30T05:47:16.750Z,-1.16
2019-01-30T05:48:13.769Z,-1.16
2019-01-30T05:49:10.836Z,-1.15
2019-01-30T05:50:07.825Z,-1.15
2019-01-30T05:51:04.854Z,-1.16
2019-01-30T05:52:01.897Z,-1.14
2019-01-30T05:52:58.928Z,-1.13
2019-01-30T05:53:55.940Z,-1.13
2019-01-30T05:54:52.963Z,-1.13
2019-01-30T05:55:49.984Z,-1.11
2019-01-30T05:56:47.019Z,-1.11
2019-01-30T05:57:44.059Z,-1.11
2019-01-30T05:58:41.083Z,-1.10
2019-01-30T05:59:38.096Z,-1.10
2019-01-30T06:00:35.125Z,-1.10
2019-01-30T06:01:32.153Z,-1.10
2019-01-30T06:02:29.179Z,-1.09
2019-01-30T06:03:26.205Z,-1.08
2019-01-30T06:04:23.244Z,-1.08
2019-01-30T06:05:19.766Z,-1.07
2019-01-30T06:06:17.293Z,-1.05
2019-01-30T06:07:13.820Z,-1.04
2019-01-30T06:08:11.347Z,-1.04
2019-01-30T06:09:08.380Z,-1.03
2019-01-30T06:10:05.400Z,-1.02
2019-01-30T06:11:02.423Z,-1.02
2019-01-30T06:11:59.450Z,-1.00
2019-01-30T06:12:56.957Z,-1.00
2019-01-30T06:13:53.517Z,-1.00
2019-01-30T06:14:50.637Z,-0.99
2019-01-30T06:15:47.579Z,-0.98
2019-01-30T06:16:44.609Z,-0.98
2019-01-30T06:17:41.623Z,-0.97
2019-01-30T06:18:38.659Z,-0.96
2019-01-30T06:19:35.704Z,-0.95
2019-01-30T06:20:32.707Z,-0.94
2019-01-30T06:21:29.730Z,-0.94
2019-01-30T06:22:26.770Z,-0.93
2019-01-30T06:23:23.806Z,-0.93
2019-01-30T06:24:20.829Z,-0.91
2019-01-30T06:25:17.903Z,-0.90
2019-01-30T06:26:14.877Z,-0.88
2019-01-30T06:27:11.916Z,-0.87
2019-01-30T06:28:08.933Z,-0.86
2019-01-30T06:29:05.971Z,-0.85
2019-01-30T06:30:02.982Z,-0.85
2019-01-30T06:31:00.021Z,-0.83
2019-01-30T06:31:57.032Z,-0.83
2019-01-30T06:32:54.070Z,-0.82
2019-01-30T06:33:51.105Z,-0.80
2019-01-30T06:34:48.121Z,-0.81
2019-01-30T06:35:45.154Z,-0.80
2019-01-30T06:36:42.188Z,-0.79
2019-01-30T06:37:39.206Z,-0.79
2019-01-30T06:38:36.240Z,-0.75
2019-01-30T06:39:33.296Z,-0.75
2019-01-30T06:40:30.297Z,-0.75
2019-01-30T06:41:27.319Z,-0.74
2019-01-30T06:42:24.337Z,-0.73
2019-01-30T06:43:21.378Z,-0.73
2019-01-30T06:44:18.426Z,-0.72
2019-01-30T06:45:16.425Z,-0.72
2019-01-30T06:46:12.461Z,-0.70
2019-01-30T06:47:09.496Z,-0.70
2019-01-30T06:48:06.604Z,-0.70
2019-01-30T06:49:03.539Z,-0.70
2019-01-30T06:50:00.611Z,-0.68
2019-01-30T06:50:57.589Z,-0.67
2019-01-30T06:51:54.616Z,-0.66
2019-01-30T06:52:51.652Z,-0.66
2019-01-30T06:53:48.682Z,-0.65
2019-01-30T06:54:45.716Z,-0.64
2019-01-30T06:55:43.727Z,-0.63
2019-01-30T06:56:39.771Z,-0.63
2019-01-30T06:57:36.804Z,-0.62
2019-01-30T06:58:33.824Z,-0.60
2019-01-30T06:59:30.868Z,-0.58
2019-01-30T07:00:27.874Z,-0.57
2019-01-30T07:01:24.899Z,-0.56
2019-01-30T07:02:31.846Z,-0.56
2019-01-30T07:03:18.962Z,-0.56
2019-01-30T07:04:15.990Z,-0.54
2019-01-30T07:05:13.014Z,-0.52
2019-01-30T07:06:10.047Z,-0.52
2019-01-30T07:07:07.070Z,-0.50
2019-01-30T07:08:04.113Z,-0.51
2019-01-30T07:09:01.113Z,-0.51
2019-01-30T07:09:58.153Z,-0.50
2019-01-30T07:10:55.183Z,-0.49
2019-01-30T07:11:52.213Z,-0.49
2019-01-30T07:12:49.241Z,-0.47
2019-01-30T07:13:46.270Z,-0.46
2019-01-30T07:14:43.307Z,-0.47
2019-01-30T07:15:40.319Z,-0.46
2019-01-30T07:16:37.355Z,-0.45
2019-01-30T07:17:34.388Z,-0.45
2019-01-30T07:18:31.412Z,-0.46
2019-01-30T07:19:28.423Z,-0.44
2019-01-30T07:20:25.460Z,-0.44
2019-01-30T07:21:22.610Z,-0.44
2019-01-30T07:22:19.509Z,-0.43
2019-01-30T07:23:16.603Z,-0.44
2019-01-30T07:24:13.594Z,-0.43
2019-01-30T07:25:10.609Z,-0.42
2019-01-30T07:26:07.649Z,-0.41
2019-01-30T07:27:04.668Z,-0.42
2019-01-30T07:28:01.700Z,-0.41
2019-01-30T07:28:58.719Z,-0.40
2019-01-30T07:29:55.740Z,-0.40
2019-01-30T07:30:52.769Z,-0.37
2019-01-30T07:31:49.891Z,-0.39
2019-01-30T07:32:46.826Z,-0.37
2019-01-30T07:33:43.854Z,-0.36
2019-01-30T07:34:40.882Z,-0.37
2019-01-30T07:35:37.905Z,-0.36
2019-01-30T07:36:34.935Z,-0.35
2019-01-30T07:37:31.973Z,-0.35
2019-01-30T07:38:28.993Z,-0.33
2019-01-30T07:39:26.006Z,-0.33
2019-01-30T07:40:23.056Z,-0.33
2019-01-30T07:41:20.082Z,-0.32
2019-01-30T07:42:17.113Z,-0.31
2019-01-30T07:43:13.631Z,-0.30
2019-01-30T07:44:11.168Z,-0.31
2019-01-30T07:45:08.188Z,-0.30
2019-01-30T07:46:06.211Z,-0.30
2019-01-30T07:47:02.242Z,-0.29
2019-01-30T07:47:59.284Z,-0.28
2019-01-30T07:48:56.298Z,-0.28
2019-01-30T07:49:53.332Z,-0.27
2019-01-30T07:50:50.348Z,-0.25
2019-01-30T07:51:47.434Z,-0.25
2019-01-30T07:52:44.422Z,-0.25
2019-01-30T07:53:41.439Z,-0.25
2019-01-30T07:54:38.606Z,-0.23
2019-01-30T07:55:35.498Z,-0.24
2019-01-30T07:56:33.526Z,-0.23
2019-01-30T07:57:29.559Z,-0.22
2019-01-30T07:58:26.605Z,-0.22
2019-01-30T07:59:23.595Z,-0.22
2019-01-30T08:00:20.636Z,-0.22
2019-01-30T08:01:17.661Z,-0.22
2019-01-30T08:02:14.685Z,-0.19
2019-01-30T08:03:11.704Z,-0.21
2019-01-30T08:04:08.754Z,-0.20
2019-01-30T08:05:05.774Z,-0.20
2019-01-30T08:06:02.803Z,-0.18
2019-01-30T08:06:59.826Z,-0.20
2019-01-30T08:07:56.860Z,-0.18
2019-01-30T08:08:53.881Z,-0.17
2019-01-30T08:09:50.898Z,-0.15
2019-01-30T08:10:47.940Z,-0.16
2019-01-30T08:11:44.967Z,-0.14
2019-01-30T08:12:41.991Z,-0.13
2019-01-30T08:13:39.022Z,-0.13
2019-01-30T08:14:36.048Z,-0.12
2019-01-30T08:15:33.078Z,-0.11
2019-01-30T08:16:30.115Z,-0.11
2019-01-30T08:17:27.135Z,-0.10
2019-01-30T08:18:24.160Z,-0.08
2019-01-30T08:19:21.173Z,-0.06
2019-01-30T08:20:18.217Z,-0.06
2019-01-30T08:21:15.249Z,-0.03
2019-01-30T08:22:12.376Z,-0.03
2019-01-30T08:23:09.298Z,-0.02
2019-01-30T08:24:06.832Z,0.01
2019-01-30T08:25:03.352Z,0.02
2019-01-30T08:26:00.656Z,0.03
2019-01-30T08:26:57.715Z,0.06
2019-01-30T08:27:54.484Z,0.06
2019-01-30T08:28:51.562Z,0.08
2019-01-30T08:29:48.746Z,0.07
2019-01-30T08:30:45.912Z,0.09
2019-01-30T08:31:42.931Z,0.10
2019-01-30T08:32:41.315Z,0.10
2019-01-30T08:33:36.604Z,0.11
2019-01-30T08:34:33.638Z,0.13
2019-01-30T08:35:30.659Z,0.12
2019-01-30T08:36:27.691Z,0.14
2019-01-30T08:37:24.672Z,0.15
2019-01-30T08:38:21.747Z,0.17
2019-01-30T08:39:18.767Z,0.16
2019-01-30T08:40:15.790Z,0.19
2019-01-30T08:41:12.823Z,0.22
2019-01-30T08:42:09.844Z,0.23
2019-01-30T08:43:06.880Z,0.26
2019-01-30T08:44:03.907Z,0.27
2019-01-30T08:45:00.990Z,0.29
2019-01-30T08:45:57.977Z,0.30
2019-01-30T08:46:55.997Z,0.34
2019-01-30T08:47:51.538Z,0.36
2019-01-30T08:48:49.053Z,0.37
2019-01-30T08:49:46.078Z,0.42
2019-01-30T08:50:43.119Z,0.46
2019-01-30T08:51:40.134Z,0.48
2019-01-30T08:52:37.171Z,0.52
2019-01-30T08:53:34.292Z,0.57
2019-01-30T08:55:28.245Z,0.71
2019-01-30T08:56:26.263Z,0.79
2019-01-30T08:57:22.300Z,0.84
2019-01-30T08:58:19.318Z,0.88
2019-01-30T08:59:16.351Z,0.93
2019-01-30T09:00:13.387Z,0.94
2019-01-30T09:01:10.453Z,0.99
2019-01-30T09:02:07.480Z,1.00
2019-01-30T09:03:14.193Z,1.03
2019-01-30T09:04:01.495Z,1.02
2019-01-30T09:04:58.614Z,1.05
2019-01-30T09:05:55.547Z,1.05
2019-01-30T09:06:52.612Z,1.07
2019-01-30T09:07:49.597Z,1.07
2019-01-30T09:08:46.643Z,1.07
2019-01-30T09:09:43.689Z,1.07
2019-01-30T09:10:40.685Z,1.08
2019-01-30T09:11:37.713Z,1.09
2019-01-30T09:12:34.854Z,1.09
2019-01-30T09:13:31.761Z,1.09
2019-01-30T09:14:29.956Z,1.09
2019-01-30T09:15:25.466Z,1.08
2019-01-30T09:16:23.273Z,1.07
2019-01-30T09:17:20.932Z,1.05
2019-01-30T09:18:16.922Z,1.07
2019-01-30T09:19:13.921Z,1.08
2019-01-30T09:20:10.951Z,1.09
2019-01-30T09:21:07.992Z,1.09
2019-01-30T09:22:05.029Z,1.12
2019-01-30T09:23:02.048Z,1.13
2019-01-30T09:23:59.078Z,1.13
2019-01-30T09:24:56.105Z,1.16
2019-01-30T09:25:53.131Z,1.14
2019-01-30T09:26:50.176Z,1.14
2019-01-30T09:27:47.203Z,1.13
2019-01-30T09:28:44.226Z,1.13
2019-01-30T09:29:41.274Z,1.14
2019-01-30T09:30:38.263Z,1.13
2019-01-30T09:31:35.290Z,1.13
2019-01-30T09:32:32.953Z,1.13
2019-01-30T09:33:29.362Z,1.13
2019-01-30T09:34:26.384Z,1.13
2019-01-30T09:35:23.415Z,1.13
2019-01-30T09:36:20.438Z,1.12
2019-01-30T09:37:18.641Z,1.12
2019-01-30T09:38:14.746Z,1.12
2019-01-30T09:39:11.531Z,1.11
2019-01-30T09:40:08.644Z,1.10
2019-01-30T09:41:05.573Z,1.10
2019-01-30T09:42:02.610Z,1.09
2019-01-30T09:42:59.640Z,1.10
2019-01-30T09:43:56.670Z,1.10
2019-01-30T09:44:53.683Z,1.10
2019-01-30T09:45:50.713Z,1.11
2019-01-30T09:46:47.745Z,1.10
2019-01-30T09:48:41.818Z,1.10
2019-01-30T09:49:38.838Z,1.10
2019-01-30T09:50:35.842Z,1.11
2019-01-30T09:51:32.868Z,1.11
2019-01-30T09:52:29.916Z,1.12
2019-01-30T09:53:26.933Z,1.13
2019-01-30T09:54:24.011Z,1.13
2019-01-30T09:55:21.015Z,1.13
2019-01-30T09:56:18.030Z,1.14
2019-01-30T09:57:15.043Z,1.14
2019-01-30T09:58:12.075Z,1.16
2019-01-30T09:59:09.110Z,1.19
2019-01-30T10:00:06.118Z,1.17
2019-01-30T10:01:03.240Z,1.19
2019-01-30T10:02:00.174Z,1.20
2019-01-30T10:02:57.213Z,1.21
2019-01-30T10:03:54.238Z,1.20
2019-01-30T10:04:51.270Z,1.21
2019-01-30T10:05:48.280Z,1.22
2019-01-30T10:06:45.378Z,1.23
2019-01-30T10:07:42.362Z,1.22
2019-01-30T10:08:39.494Z,1.23
2019-01-30T10:09:37.741Z,1.23
2019-01-30T10:10:33.462Z,1.23
2019-01-30T10:11:31.720Z,1.23
2019-01-30T10:12:27.499Z,1.22
2019-01-30T10:13:24.515Z,1.23
2019-01-30T10:14:21.584Z,1.23
2019-01-30T10:15:18.568Z,1.23
2019-01-30T10:16:15.601Z,1.23
2019-01-30T10:17:12.654Z,1.23
2019-01-30T10:18:09.702Z,1.23
2019-01-30T10:19:06.669Z,1.22
2019-01-30T10:20:03.695Z,1.21
2019-01-30T10:21:02.350Z,1.23
2019-01-30T10:21:57.887Z,1.22
2019-01-30T10:22:54.919Z,1.20
2019-01-30T10:23:51.828Z,1.22
2019-01-30T10:24:50.608Z,1.22
2019-01-30T10:25:46.866Z,1.21
2019-01-30T10:26:42.940Z,1.22
2019-01-30T10:27:39.935Z,1.22
2019-01-30T10:28:36.965Z,1.23
2019-01-30T10:29:33.984Z,1.23
2019-01-30T10:30:31.086Z,1.23
2019-01-30T10:31:28.056Z,1.23
2019-01-30T10:32:25.078Z,1.24
2019-01-30T10:33:22.144Z,1.24
2019-01-30T10:34:19.118Z,1.24
2019-01-30T10:35:16.158Z,1.25
2019-01-30T10:36:13.176Z,1.25
2019-01-30T10:37:10.210Z,1.26
2019-01-30T10:38:07.237Z,1.27
2019-01-30T10:39:04.252Z,1.29
2019-01-30T10:40:01.281Z,1.32
2019-01-30T10:40:58.315Z,1.30
2019-01-30T10:41:55.334Z,1.32
2019-01-30T10:42:52.356Z,1.33
2019-01-30T10:43:49.401Z,1.33
2019-01-30T10:44:46.507Z,1.33
2019-01-30T10:45:45.517Z,1.35
2019-01-30T10:46:40.556Z,1.34
2019-01-30T10:47:37.666Z,1.35
2019-01-30T10:48:36.444Z,1.35
2019-01-30T10:49:31.834Z,1.36
2019-01-30T10:50:28.616Z,1.35
2019-01-30T10:51:25.907Z,1.34
2019-01-30T10:52:22.640Z,1.34
2019-01-30T10:53:19.196Z,1.33
2019-01-30T10:54:16.696Z,1.33
2019-01-30T10:55:13.230Z,1.32
2019-01-30T10:56:10.744Z,1.29
2019-01-30T10:57:07.782Z,1.30
2019-01-30T10:58:04.810Z,1.28
2019-01-30T10:59:01.872Z,1.29
2019-01-30T10:59:58.861Z,1.28
2019-01-30T11:00:55.904Z,1.27
2019-01-30T11:01:52.968Z,1.29
2019-01-30T11:02:49.943Z,1.28
2019-01-30T11:03:56.749Z,1.28
2019-01-30T11:04:44.017Z,1.28
2019-01-30T11:05:41.290Z,1.29
2019-01-30T11:06:37.563Z,1.29
2019-01-30T11:07:35.102Z,1.29
2019-01-30T11:08:34.471Z,1.28
2019-01-30T11:09:29.217Z,1.29
2019-01-30T11:10:26.176Z,1.28
2019-01-30T11:11:23.187Z,1.28
2019-01-30T11:12:19.737Z,1.28
2019-01-30T11:13:17.327Z,1.27
2019-01-30T11:14:14.270Z,1.27
2019-01-30T11:15:11.304Z,1.26
2019-01-30T11:16:08.339Z,1.27
2019-01-30T11:17:05.359Z,1.26
2019-01-30T11:18:02.386Z,1.27
2019-01-30T11:18:59.438Z,1.26
2019-01-30T11:19:56.427Z,1.25
2019-01-30T11:20:53.467Z,1.25
2019-01-30T11:21:50.485Z,1.25
2019-01-30T11:22:47.607Z,1.26
2019-01-30T11:23:44.564Z,1.26
2019-01-30T11:24:41.608Z,1.26
2019-01-30T11:25:38.613Z,1.25
2019-01-30T11:26:36.487Z,1.26
2019-01-30T11:27:32.665Z,1.26
2019-01-30T11:28:29.683Z,1.26
2019-01-30T11:29:26.229Z,1.26
2019-01-30T11:30:23.731Z,1.26
2019-01-30T11:31:20.280Z,1.25
2019-01-30T11:32:17.796Z,1.26
2019-01-30T11:33:14.828Z,1.26
2019-01-30T11:34:11.907Z,1.26
2019-01-30T11:35:08.477Z,1.26
2019-01-30T11:36:05.919Z,1.26
2019-01-30T11:37:03.244Z,1.26
2019-01-30T11:37:59.981Z,1.26
2019-01-30T11:38:56.991Z,1.26
2019-01-30T11:39:54.025Z,1.26
2019-01-30T11:40:51.053Z,1.26
2019-01-30T11:41:48.072Z,1.26
2019-01-30T11:42:45.106Z,1.26
2019-01-30T11:43:42.141Z,1.26
2019-01-30T11:44:39.170Z,1.27
2019-01-30T11:45:36.184Z,1.26
2019-01-30T11:46:33.232Z,1.28
2019-01-30T11:47:30.246Z,1.28
2019-01-30T11:48:27.284Z,1.29
2019-01-30T11:49:24.308Z,1.29
2019-01-30T11:50:21.320Z,1.30
2019-01-30T11:51:18.351Z,1.32
2019-01-30T11:52:15.409Z,1.33
2019-01-30T11:53:12.411Z,1.36
2019-01-30T11:54:09.428Z,1.37
2019-01-30T11:55:06.497Z,1.38
2019-01-30T11:56:03.601Z,1.40
2019-01-30T11:57:00.519Z,1.41
2019-01-30T11:57:57.061Z,1.42
2019-01-30T11:58:54.576Z,1.45
2019-01-30T11:59:51.609Z,1.46
2019-01-30T12:00:48.628Z,1.48
2019-01-30T12:01:45.661Z,1.48
2019-01-30T12:02:47.939Z,1.50
2019-01-30T12:03:39.210Z,1.50
2019-01-30T12:04:36.749Z,1.52
2019-01-30T12:05:33.780Z,1.52
2019-01-30T12:06:30.796Z,1.52
2019-01-30T12:07:27.835Z,1.53
2019-01-30T12:08:24.841Z,1.53
2019-01-30T12:09:21.878Z,1.54
2019-01-30T12:10:18.920Z,1.55
2019-01-30T12:11:15.923Z,1.57
2019-01-30T12:12:12.961Z,1.55
2019-01-30T12:13:09.978Z,1.59
2019-01-30T12:14:07.016Z,1.61
2019-01-30T12:15:04.061Z,1.63
2019-01-30T12:16:01.073Z,1.63
2019-01-30T12:16:58.119Z,1.66
2019-01-30T12:17:55.122Z,1.66
2019-01-30T12:18:52.161Z,1.67
2019-01-30T12:19:49.181Z,1.67
2019-01-30T12:20:46.209Z,1.67
2019-01-30T12:21:42.794Z,1.69
2019-01-30T12:22:40.264Z,1.69
2019-01-30T12:23:37.293Z,1.72